createdAt,value
2023-03-02T00:01:26.547Z,69
2023-03-02T00:04:16.948Z,79.6
2023-03-02T00:07:08.104Z,80.1
2023-03-02T00:09:58.455Z,74.7
2023-03-02T00:12:46.010Z,75
2023-03-02T00:15:33.366Z,82.5
2023-03-02T00:18:20.632Z,77.5
2023-03-02T00:21:07.863Z,70.9
2023-03-02T00:23:56.026Z,72.6
2023-03-02T00:26:43.402Z,77.5
2023-03-02T00:29:30.736Z,81
2023-03-02T00:32:18.339Z,85.6
2023-03-02T00:35:05.703Z,87.1
2023-03-02T00:37:53.897Z,83.6
2023-03-02T00:40:41.388Z,71.6
2023-03-02T00:43:30.823Z,70.2
2023-03-02T00:46:18.144Z,76.8
2023-03-02T00:49:14.015Z,80.5
2023-03-02T00:52:02.543Z,80.8
2023-03-02T00:54:50.584Z,81.4
2023-03-02T00:57:37.929Z,76.8
2023-03-02T01:00:25.307Z,82.4
2023-03-02T01:03:13.506Z,72.6
2023-03-02T01:06:01.977Z,83.5
2023-03-02T01:08:50.897Z,68.3
2023-03-02T01:11:38.423Z,81.4
2023-03-02T01:14:25.882Z,73.3
2023-03-02T01:17:14.132Z,82.8
2023-03-02T01:20:02.105Z,70
2023-03-02T01:22:53.473Z,60.8
2023-03-02T01:25:41.532Z,66.3
2023-03-02T01:28:28.750Z,68.4
2023-03-02T01:31:16.147Z,74.6
2023-03-02T01:34:03.426Z,71.9
2023-03-02T01:36:50.918Z,70
2023-03-02T01:39:38.240Z,63.4
2023-03-02T01:42:25.789Z,55.9
2023-03-02T01:45:18.594Z,64.5
2023-03-02T01:48:39.177Z,67.1
2023-03-02T01:51:31.832Z,58.5
2023-03-02T01:54:28.440Z,63.3
2023-03-02T01:57:15.945Z,56.1
2023-03-02T02:00:11.405Z,62.7
2023-03-02T02:03:03.954Z,58
2023-03-02T02:05:56.526Z,55.7
2023-03-02T02:08:54.142Z,60.8
2023-03-02T02:11:43.451Z,53.5
2023-03-02T02:14:31.309Z,57.6
2023-03-02T02:17:19.059Z,53.2
2023-03-02T02:20:06.965Z,50
2023-03-02T02:23:08.754Z,52.1
2023-03-02T02:26:18.962Z,55.1
2023-03-02T02:29:10.585Z,51.8
2023-03-02T02:32:04.188Z,50.7
2023-03-02T02:34:58.495Z,51
2023-03-02T02:37:50.278Z,49
2023-03-02T02:40:41.282Z,51.2
2023-03-02T02:43:33.172Z,44.6
2023-03-02T02:46:20.842Z,45.6
2023-03-02T02:49:09.494Z,40.3
2023-03-02T02:52:07.789Z,40.1
2023-03-02T02:55:01.762Z,44.9
2023-03-02T02:57:50.304Z,41.9
2023-03-02T03:00:41.270Z,37.8
2023-03-02T03:03:28.716Z,36.2
2023-03-02T03:06:18.469Z,34.6
2023-03-02T03:09:10.546Z,43.3
2023-03-02T03:11:59.225Z,39.9
2023-03-02T03:14:53.617Z,42.5
2023-03-02T03:17:40.995Z,39.5
2023-03-02T03:20:33.876Z,46.5
2023-03-02T03:23:21.184Z,48.5
2023-03-02T03:26:09.456Z,48.7
2023-03-02T03:28:57.126Z,48.2
2023-03-02T03:31:44.770Z,52.7
2023-03-02T03:34:32.129Z,48.1
2023-03-02T03:37:25.039Z,48.1
2023-03-02T03:40:12.795Z,51.5
2023-03-02T03:43:01.358Z,55.7
2023-03-02T03:45:49.491Z,56.9
2023-03-02T03:48:36.896Z,47.4
2023-03-02T03:51:24.298Z,41.3
2023-03-02T03:54:12.484Z,42.2
2023-03-02T03:57:01.318Z,47.5
2023-03-02T03:59:48.928Z,40.6
2023-03-02T04:02:36.541Z,40.9
2023-03-02T04:05:23.991Z,36
2023-03-02T04:08:11.628Z,38.7
2023-03-02T04:11:00.153Z,45.7
2023-03-02T04:13:47.457Z,47.4
2023-03-02T04:16:35.238Z,44.4
2023-03-02T04:19:23.308Z,37.3
2023-03-02T04:22:11.125Z,41.2
2023-03-02T04:25:00.888Z,43
2023-03-02T04:27:49.704Z,38.7
2023-03-02T04:30:38.674Z,38.5
2023-03-02T04:33:26.054Z,36.8
2023-03-02T04:36:13.975Z,37.1
2023-03-02T04:39:04.152Z,39.1
2023-03-02T04:41:52.374Z,42.5
2023-03-02T04:44:40.256Z,44.5
2023-03-02T04:47:27.650Z,41.3
2023-03-02T04:50:15.265Z,37.1
2023-03-02T04:53:02.708Z,40.9
2023-03-02T04:55:50.098Z,46.3
2023-03-02T04:58:37.494Z,40
2023-03-02T05:01:24.759Z,41.6
2023-03-02T05:04:13.294Z,49.8
2023-03-02T05:07:02.045Z,48.3
2023-03-02T05:09:49.870Z,48.3
2023-03-02T05:12:37.245Z,43.6
2023-03-02T05:15:39.728Z,44
2023-03-02T05:18:28.053Z,44.5
2023-03-02T05:21:15.997Z,48.3
2023-03-02T05:24:03.670Z,42.6
2023-03-02T05:26:51.900Z,40.1
2023-03-02T05:29:39.418Z,35
2023-03-02T05:32:26.948Z,39.5
2023-03-02T05:35:14.824Z,35.8
2023-03-02T05:38:03.142Z,36.8
2023-03-02T05:40:51.050Z,36.2
2023-03-02T05:43:38.545Z,35.8
2023-03-02T05:46:25.896Z,33.7
2023-03-02T05:49:13.742Z,27.8
2023-03-02T05:52:02.393Z,32.6
2023-03-02T05:54:49.784Z,25.4
2023-03-02T05:57:37.169Z,26.3
2023-03-02T06:00:24.706Z,24.4
2023-03-02T06:03:12.581Z,28.5
2023-03-02T06:06:02.174Z,23.5
2023-03-02T06:08:50.032Z,25.8
2023-03-02T06:11:37.223Z,26
2023-03-02T06:14:24.832Z,24.2
2023-03-02T06:17:12.466Z,22.4
2023-03-02T06:20:01.008Z,22.1
2023-03-02T06:22:54.755Z,22.1
2023-03-02T06:25:43.036Z,20.5
2023-03-02T06:28:43.013Z,19.7
2023-03-02T06:31:38.010Z,18.8
2023-03-02T06:34:25.395Z,20.2
2023-03-02T06:37:14.289Z,18.6
2023-03-02T06:40:02.641Z,20.8
2023-03-02T06:42:53.289Z,20
2023-03-02T06:45:40.625Z,19.3
2023-03-02T06:48:28.019Z,23.1
2023-03-02T06:51:15.619Z,21
2023-03-02T06:54:03.275Z,21.3
2023-03-02T06:56:52.369Z,19.7
2023-03-02T06:59:41.619Z,19.2
2023-03-02T07:02:29.255Z,18.4
2023-03-02T07:05:16.909Z,21
2023-03-02T07:08:04.981Z,19.8
2023-03-02T07:10:52.593Z,20.3
2023-03-02T07:13:40.019Z,20.4
2023-03-02T07:16:27.490Z,19.7
2023-03-02T07:19:16.061Z,19.4
2023-03-02T07:22:03.744Z,21.5
2023-03-02T07:24:51.619Z,20.2
2023-03-02T07:27:38.987Z,19.9
2023-03-02T07:30:26.827Z,21.8
2023-03-02T07:33:14.931Z,23.1
2023-03-02T07:36:03.010Z,24.3
2023-03-02T07:38:51.877Z,24.4
2023-03-02T07:41:39.959Z,22.1
2023-03-02T07:44:28.665Z,22.1
2023-03-02T07:47:16.478Z,18
2023-03-02T07:50:04.153Z,21.1
2023-03-02T07:52:53.402Z,20.4
2023-03-02T07:55:40.886Z,21.8
2023-03-02T07:58:28.383Z,21.8
2023-03-02T08:01:16.047Z,21.7
2023-03-02T08:04:03.692Z,19.8
2023-03-02T08:06:51.263Z,21.9
2023-03-02T08:09:38.672Z,21.7
2023-03-02T08:12:26.119Z,22.1
2023-03-02T08:15:12.657Z,28
2023-03-02T08:18:01.304Z,23.2
2023-03-02T08:20:49.062Z,23.3
2023-03-02T08:23:38.448Z,24.3
2023-03-02T08:26:26.405Z,24.5
2023-03-02T08:29:14.327Z,24.4
2023-03-02T08:32:02.490Z,27.1
2023-03-02T08:34:50.809Z,29.7
2023-03-02T08:37:38.293Z,23.4
2023-03-02T08:40:25.724Z,26.4
2023-03-02T08:43:13.416Z,29.6
2023-03-02T08:46:01.967Z,26.6
2023-03-02T08:48:50.095Z,24
2023-03-02T08:51:37.546Z,23.4
2023-03-02T08:54:24.865Z,27.1
2023-03-02T08:57:12.807Z,29.4
2023-03-02T09:00:01.411Z,28.5
2023-03-02T09:02:53.289Z,29.3
2023-03-02T09:05:40.860Z,30
2023-03-02T09:08:28.690Z,28.2
2023-03-02T09:11:16.132Z,32.8
2023-03-02T09:14:03.810Z,33.5
2023-03-02T09:16:51.311Z,34.8
2023-03-02T09:19:39.098Z,25.3
2023-03-02T09:22:26.731Z,21.1
2023-03-02T09:25:15.806Z,21
2023-03-02T09:28:04.124Z,24.3
2023-03-02T09:30:51.404Z,24.6
2023-03-02T09:33:42.073Z,26.1
2023-03-02T09:36:30.005Z,29.4
2023-03-02T09:39:17.377Z,19.2
2023-03-02T09:42:04.785Z,19.5
2023-03-02T09:45:08.540Z,22.8
2023-03-02T09:48:10.217Z,21.1
2023-03-02T09:51:08.274Z,22.3
2023-03-02T09:54:10.540Z,19.2
2023-03-02T09:57:02.105Z,19.2
2023-03-02T10:00:17.820Z,31.8
2023-03-02T10:03:17.452Z,27.1
2023-03-02T10:06:08.569Z,21.7
2023-03-02T10:08:56.223Z,19.1
2023-03-02T10:11:43.633Z,19.3
2023-03-02T10:14:53.078Z,20.1
2023-03-02T10:17:48.792Z,25.2
2023-03-02T10:20:45.624Z,16
2023-03-02T10:23:39.798Z,21.3
2023-03-02T10:26:31.856Z,20
2023-03-02T10:29:25.385Z,22.8
2023-03-02T10:32:28.005Z,22.7
2023-03-02T10:35:20.869Z,19.9
2023-03-02T10:38:12.597Z,15.9
2023-03-02T10:41:02.998Z,15
2023-03-02T10:43:53.193Z,16.8
2023-03-02T10:46:46.464Z,17.5
2023-03-02T10:49:33.870Z,18.1
2023-03-02T10:52:23.917Z,20.1
2023-03-02T10:55:13.885Z,21
2023-03-02T10:58:02.411Z,21.8
2023-03-02T11:00:52.022Z,22.2
2023-03-02T11:03:44.745Z,24.2
2023-03-02T11:06:41.194Z,23.9
2023-03-02T11:09:33.676Z,23.7
2023-03-02T11:12:21.078Z,20.7
2023-03-02T11:15:08.878Z,20.8
2023-03-02T11:18:06.742Z,19.2
2023-03-02T11:21:07.286Z,21.4
2023-03-02T11:24:00.108Z,22.4
2023-03-02T11:26:55.046Z,21.5
2023-03-02T11:29:48.919Z,20.2
2023-03-02T11:32:48.076Z,20.2
2023-03-02T11:35:39.983Z,20.3
2023-03-02T11:38:32.127Z,22.8
2023-03-02T11:41:26.466Z,23.8
2023-03-02T11:44:17.630Z,22.7
2023-03-02T11:47:08.898Z,21.6
2023-03-02T11:49:58.700Z,22.5
2023-03-02T11:52:50.342Z,25
2023-03-02T11:55:42.380Z,22.3
2023-03-02T11:58:34.079Z,19
2023-03-02T12:01:23.370Z,30.5
2023-03-02T12:04:13.456Z,25.9
2023-03-02T12:07:13.208Z,18.2
2023-03-02T12:10:07.607Z,23.9
2023-03-02T12:13:13.419Z,20.8
2023-03-02T12:16:04.993Z,20.1
2023-03-02T12:19:06.433Z,19.6
2023-03-02T12:21:59.801Z,19.1
2023-03-02T12:24:50.241Z,19.9
2023-03-02T12:27:46.407Z,25.6
2023-03-02T12:30:36.221Z,19.2
2023-03-02T12:33:23.527Z,17.6
2023-03-02T12:36:11.043Z,17.8
2023-03-02T12:39:04.775Z,19
2023-03-02T12:42:09.549Z,24.1
2023-03-02T12:45:27.388Z,20.4
2023-03-02T12:48:32.581Z,18.8
2023-03-02T12:51:27.186Z,19.1
2023-03-02T12:54:19.100Z,20.9
2023-03-02T12:57:08.216Z,18.4
2023-03-02T13:00:05.207Z,24.3
2023-03-02T13:03:02.806Z,24.2
2023-03-02T13:05:54.348Z,23.5
2023-03-02T13:08:47.654Z,23.5
2023-03-02T13:11:39.100Z,23
2023-03-02T13:14:28.579Z,21.7
2023-03-02T13:17:16.066Z,22
2023-03-02T13:20:15.387Z,27.3
2023-03-02T13:23:05.387Z,20.7
2023-03-02T13:25:55.246Z,21.9
2023-03-02T13:28:44.205Z,19.6
2023-03-02T13:31:31.792Z,23.5
2023-03-02T13:34:20.091Z,19.6
2023-03-02T13:37:09.423Z,18.5
2023-03-02T13:40:06.774Z,22.4
2023-03-02T13:43:18.804Z,18.6
2023-03-02T13:46:19.000Z,19.1
2023-03-02T13:49:19.976Z,19.2
2023-03-02T13:52:17.051Z,18.7
2023-03-02T13:55:12.061Z,21.8
2023-03-02T13:58:02.458Z,17.5
2023-03-02T14:00:54.838Z,18.9
2023-03-02T14:03:42.342Z,17
2023-03-02T14:06:29.740Z,21.5
2023-03-02T14:09:17.206Z,18.4
2023-03-02T14:12:05.369Z,26.2
2023-03-02T14:14:52.905Z,21.6
2023-03-02T14:17:43.357Z,21.2
2023-03-02T14:20:33.694Z,20.5
2023-03-02T14:23:21.274Z,23.4
2023-03-02T14:26:09.503Z,24.4
2023-03-02T14:29:12.269Z,21.1
2023-03-02T14:32:06.918Z,18.3
2023-03-02T14:34:56.097Z,21.4
2023-03-02T14:37:43.659Z,20.4
2023-03-02T14:40:34.065Z,19.5
2023-03-02T14:43:21.400Z,19.8
2023-03-02T14:46:09.759Z,25.5
2023-03-02T14:48:57.655Z,17.6
2023-03-02T14:51:45.021Z,19.1
2023-03-02T14:54:40.917Z,21.9
2023-03-02T14:57:33.835Z,21.7
2023-03-02T15:00:23.159Z,19.9
2023-03-02T15:03:11.657Z,24.4
2023-03-02T15:06:03.776Z,18.6
2023-03-02T15:09:04.159Z,20.5
2023-03-02T15:11:52.596Z,21.6
2023-03-02T15:14:45.372Z,18.4
2023-03-02T15:17:32.940Z,15
2023-03-02T15:20:25.699Z,15.7
2023-03-02T15:23:14.055Z,18.1
2023-03-02T15:26:02.519Z,23.2
2023-03-02T15:28:50.232Z,23.6
2023-03-02T15:31:38.127Z,18
2023-03-02T15:34:25.693Z,20.9
2023-03-02T15:37:13.383Z,18.7
2023-03-02T15:40:02.675Z,20.3
2023-03-02T15:42:52.813Z,17.6
2023-03-02T15:45:40.300Z,19.6
2023-03-02T15:48:30.897Z,18.5
2023-03-02T15:51:18.345Z,18.3
2023-03-02T15:54:06.278Z,22.5
2023-03-02T15:56:55.451Z,23.4
2023-03-02T15:59:43.213Z,22.5
2023-03-02T16:02:31.681Z,23
2023-03-02T16:05:19.290Z,35.5
2023-03-02T16:08:06.924Z,28.2
2023-03-02T16:10:54.354Z,22.4
2023-03-02T16:13:42.957Z,21.2
2023-03-02T16:16:30.380Z,19.1
2023-03-02T16:19:19.154Z,24.5
2023-03-02T16:22:06.777Z,20.7
2023-03-02T16:24:54.162Z,20
2023-03-02T16:27:41.500Z,18.3
2023-03-02T16:30:32.053Z,23.2
2023-03-02T16:33:20.496Z,24.9
2023-03-02T16:36:07.965Z,22.4
2023-03-02T16:38:56.445Z,27.8
2023-03-02T16:41:44.036Z,35.5
2023-03-02T16:44:32.125Z,33.3
2023-03-02T16:47:22.179Z,26.8
2023-03-02T16:50:09.526Z,30.7
2023-03-02T16:52:59.443Z,28.6
2023-03-02T16:55:47.359Z,30.5
2023-03-02T16:58:35.256Z,33.9
2023-03-02T17:01:24.338Z,29.4
2023-03-02T17:04:13.016Z,27.7
2023-03-02T17:07:02.953Z,31
2023-03-02T17:09:51.025Z,30.3
2023-03-02T17:12:38.466Z,31.1
2023-03-02T17:15:26.213Z,26.6
2023-03-02T17:18:14.010Z,26.1
2023-03-02T17:21:02.002Z,30.6
2023-03-02T17:23:50.758Z,31
2023-03-02T17:26:38.207Z,30.1
2023-03-02T17:29:25.673Z,23.8
2023-03-02T17:32:13.737Z,27.6
2023-03-02T17:35:02.231Z,28.6
2023-03-02T17:37:50.732Z,28.2
2023-03-02T17:40:38.076Z,29
2023-03-02T17:43:25.591Z,30.8
2023-03-02T17:46:16.428Z,30.1
2023-03-02T17:49:07.761Z,32.7
2023-03-02T17:51:55.245Z,31.1
2023-03-02T17:54:42.660Z,26.7
2023-03-02T17:57:30.302Z,38.7
2023-03-02T18:00:17.769Z,32.6
2023-03-02T18:03:08.031Z,36.5
2023-03-02T18:05:56.179Z,30.6
2023-03-02T18:08:43.554Z,30.2
2023-03-02T18:11:31.079Z,28.1
2023-03-02T18:14:18.682Z,30.6
2023-03-02T18:17:07.004Z,31.5
2023-03-02T18:19:54.777Z,33.8
2023-03-02T18:22:42.171Z,32.7
2023-03-02T18:25:29.600Z,37.5
2023-03-02T18:28:17.006Z,31.4
2023-03-02T18:31:04.606Z,31.2
2023-03-02T18:33:52.550Z,34.1
2023-03-02T18:36:39.983Z,36.6
2023-03-02T18:39:27.470Z,31.8
2023-03-02T18:42:15.164Z,31.6
2023-03-02T18:45:03.184Z,34.6
2023-03-02T18:47:53.341Z,37
2023-03-02T18:50:40.994Z,36.5
2023-03-02T18:53:28.607Z,31.3
2023-03-02T18:56:16.012Z,36.9
2023-03-02T18:59:04.568Z,35.4
2023-03-02T19:01:54.102Z,38.2
2023-03-02T19:04:42.000Z,33.2
2023-03-02T19:07:29.393Z,29.3
2023-03-02T19:10:16.914Z,35.8
2023-03-02T19:13:05.041Z,31.3
2023-03-02T19:15:54.795Z,35.5
2023-03-02T19:18:43.385Z,35.5
2023-03-02T19:21:31.326Z,36.9
2023-03-02T19:24:19.033Z,33.4
2023-03-02T19:27:06.860Z,34.5
2023-03-02T19:29:54.583Z,33.7
2023-03-02T19:32:47.263Z,34.3
2023-03-02T19:35:38.712Z,34.5
2023-03-02T19:38:26.714Z,34.9
2023-03-02T19:41:14.612Z,30.9
2023-03-02T19:44:05.031Z,39.8
2023-03-02T19:46:53.067Z,39.7
2023-03-02T19:49:40.901Z,33.8
2023-03-02T19:52:28.452Z,31
2023-03-02T19:55:16.525Z,35.7
2023-03-02T19:58:04.861Z,31.6
2023-03-02T20:00:52.772Z,33.6
2023-03-02T20:03:40.604Z,36.6
2023-03-02T20:06:28.736Z,40.4
2023-03-02T20:09:18.659Z,36.7
2023-03-02T20:12:06.250Z,33.2
2023-03-02T20:14:55.472Z,30.1
2023-03-02T20:17:42.909Z,37.3
2023-03-02T20:20:30.487Z,39.5
2023-03-02T20:23:18.424Z,43.6
2023-03-02T20:26:06.564Z,44.8
2023-03-02T20:28:54.153Z,32
2023-03-02T20:31:44.010Z,32.2
2023-03-02T20:34:31.458Z,40.3
2023-03-02T20:37:18.800Z,36.4
2023-03-02T20:40:07.199Z,43.5
2023-03-02T20:42:56.011Z,45
2023-03-02T20:45:43.590Z,37.8
2023-03-02T20:48:31.415Z,42.1
2023-03-02T20:51:19.455Z,46.9
2023-03-02T20:54:07.462Z,56
2023-03-02T20:56:54.898Z,53.5
2023-03-02T20:59:43.042Z,48.9
2023-03-02T21:02:31.964Z,46
2023-03-02T21:05:19.663Z,52
2023-03-02T21:08:06.985Z,54.4
2023-03-02T21:10:59.488Z,48.7
2023-03-02T21:13:47.005Z,50
2023-03-02T21:16:34.792Z,44.9
2023-03-02T21:19:23.885Z,47.2
2023-03-02T21:22:13.937Z,49.2
2023-03-02T21:25:05.233Z,52.4
2023-03-02T21:27:53.906Z,50.7
2023-03-02T21:30:41.390Z,49.2
2023-03-02T21:33:28.822Z,59
2023-03-02T21:36:16.396Z,43.8
2023-03-02T21:39:07.518Z,53.7
2023-03-02T21:41:56.401Z,46.2
2023-03-02T21:44:44.776Z,45.4
2023-03-02T21:47:32.478Z,45.8
2023-03-02T21:50:20.079Z,51.8
2023-03-02T21:53:11.950Z,50.3
2023-03-02T21:56:00.558Z,45.9
2023-03-02T21:58:48.221Z,50.6
2023-03-02T22:01:38.020Z,45.7
2023-03-02T22:04:25.838Z,44.5
2023-03-02T22:07:13.463Z,49.9
2023-03-02T22:10:01.887Z,48
2023-03-02T22:12:51.711Z,42.9
2023-03-02T22:15:42.215Z,46.8
2023-03-02T22:18:30.855Z,47.6
2023-03-02T22:21:18.549Z,51
2023-03-02T22:24:15.699Z,41.8
2023-03-02T22:27:07.602Z,40.6
2023-03-02T22:30:07.754Z,43.7
2023-03-02T22:33:04.907Z,41.1
2023-03-02T22:36:00.420Z,43.1
2023-03-02T22:39:06.459Z,42.4
2023-03-02T22:42:02.017Z,46.4
2023-03-02T22:44:58.744Z,41.1
2023-03-02T22:47:57.507Z,47.5
2023-03-02T22:50:45.471Z,46.2
2023-03-02T22:53:34.976Z,42.4
2023-03-02T22:56:27.671Z,47.2
2023-03-02T22:59:19.307Z,50.9
2023-03-02T23:02:09.314Z,43.1
2023-03-02T23:05:02.753Z,46.1
2023-03-02T23:08:07.479Z,49.2
2023-03-02T23:11:05.517Z,37.7
2023-03-02T23:14:00.681Z,38.8
2023-03-02T23:16:59.754Z,40.3
2023-03-02T23:19:56.780Z,43.7
2023-03-02T23:22:44.457Z,44.6
2023-03-02T23:25:34.549Z,47.9
2023-03-02T23:28:21.808Z,41.6
2023-03-02T23:31:09.024Z,44.7
2023-03-02T23:33:56.372Z,48.8
2023-03-02T23:36:43.942Z,41.8
2023-03-02T23:39:31.434Z,41.2
2023-03-02T23:42:18.727Z,39.8
2023-03-02T23:45:06.005Z,47.8
2023-03-02T23:47:54.718Z,51.1
2023-03-02T23:50:42.347Z,42.2
2023-03-02T23:53:30.160Z,45.6
2023-03-02T23:56:17.526Z,51.6
2023-03-02T23:59:05.262Z,40
